Time;durP1;ratioP1;P1;durP2;ratioP2;P2;SDS_P1;SDS_P2;PMS_P1;PMS_P2;Temp;Humidity;BMP_temperature;BMP_pressure;BME280_temperature;BME280_humidity;BME280_pressure;Samples;Min_cycle;Max_cycle;Signal;HPM_P1;HPM_P2
2023/04/29 00:02:00;;;;;;;58.38;32.33;;;;;;;9.22;100.00;101337.72;5262145;28;20491;-67
2023/04/29 00:04:33;;;;;;;57.40;31.75;;;;;;;9.20;100.00;101336.97;5306516;27;20126;-69
2023/04/29 00:07:04;;;;;;;59.50;33.40;;;;;;;9.13;100.00;101338.28;5312276;28;20023;-68
2023/04/29 00:09:37;;;;;;;54.47;32.88;;;;;;;9.09;100.00;101344.75;5307025;28;20027;-69
2023/04/29 00:12:09;;;;;;;56.10;33.10;;;;;;;9.06;100.00;101344.09;5292134;28;20654;-68
2023/04/29 00:14:42;;;;;;;55.80;33.05;;;;;;;9.08;100.00;101340.38;5301527;28;20116;-69
2023/04/29 00:17:13;;;;;;;57.92;34.13;;;;;;;9.10;100.00;101350.94;5299299;28;20110;-69
2023/04/29 00:19:45;;;;;;;50.92;31.38;;;;;;;9.08;100.00;101348.34;5295288;28;20038;-69
2023/04/29 00:22:16;;;;;;;52.22;30.92;;;;;;;9.03;100.00;101342.44;5295181;28;20110;-68
2023/04/29 00:24:47;;;;;;;54.08;32.63;;;;;;;9.01;100.00;101339.91;5292013;28;20031;-68
2023/04/29 00:27:19;;;;;;;52.72;31.58;;;;;;;8.99;100.00;101346.25;5300685;28;20030;-68
2023/04/29 00:29:50;;;;;;;53.42;32.95;;;;;;;8.97;100.00;101350.81;5294353;28;20454;-68
2023/04/29 00:32:21;;;;;;;52.95;31.83;;;;;;;8.95;100.00;101353.56;5294698;27;20041;-68
2023/04/29 00:34:53;;;;;;;50.90;32.03;;;;;;;8.95;100.00;101360.72;5294789;27;20051;-68
2023/04/29 00:37:24;;;;;;;56.40;32.97;;;;;;;8.92;100.00;101359.09;5304386;27;20028;-68
2023/04/29 00:39:55;;;;;;;54.42;31.73;;;;;;;8.92;100.00;101363.56;5308491;27;20047;-68
2023/04/29 00:42:30;;;;;;;49.40;31.73;;;;;;;8.91;100.00;101362.69;5302645;27;20105;-68
2023/04/29 00:45:02;;;;;;;42.63;28.77;;;;;;;8.88;100.00;101367.34;5311342;27;20117;-68
2023/04/29 00:47:33;;;;;;;44.88;29.52;;;;;;;8.86;100.00;101361.25;5308014;27;20103;-68
2023/04/29 00:50:06;;;;;;;49.13;29.08;;;;;;;8.84;100.00;101366.72;5281974;28;20027;-69
2023/04/29 00:52:38;;;;;;;43.63;27.17;;;;;;;8.85;100.00;101356.91;5302537;27;20031;-69
2023/04/29 00:55:11;;;;;;;41.60;27.17;;;;;;;8.80;100.00;101360.72;5304317;28;20650;-68
2023/04/29 00:57:47;;;;;;;43.93;27.20;;;;;;;8.78;100.00;101369.72;5302764;27;20032;-68
2023/04/29 01:00:19;;;;;;;41.38;27.63;;;;;;;8.76;100.00;101369.84;5304950;28;20613;-68
2023/04/29 01:02:52;;;;;;;36.72;25.80;;;;;;;8.71;100.00;101377.22;5298278;28;20048;-68
2023/04/29 01:05:24;;;;;;;40.72;27.38;;;;;;;8.68;100.00;101374.72;5261794;28;20024;-68
2023/04/29 01:08:36;;;;;;;44.50;27.75;;;;;;;8.69;100.00;101379.13;5264385;28;20027;-67
2023/04/29 01:11:10;;;;;;;40.70;27.10;;;;;;;8.67;100.00;101375.69;5262785;28;20032;-68
2023/04/29 01:13:48;;;;;;;42.08;27.25;;;;;;;8.67;100.00;101377.47;5267479;28;20028;-68
2023/04/29 01:16:24;;;;;;;44.17;28.42;;;;;;;8.66;100.00;101381.97;5261718;28;20115;-68
2023/04/29 01:19:06;;;;;;;44.08;29.17;;;;;;;8.59;100.00;101378.81;5262563;28;20028;-68
2023/04/29 01:21:47;;;;;;;44.80;29.58;;;;;;;8.64;100.00;101386.50;5259514;28;20113;-68
2023/04/29 01:24:18;;;;;;;44.92;28.77;;;;;;;8.60;100.00;101391.16;5261249;28;20048;-68
2023/04/29 01:27:10;;;;;;;44.90;29.48;;;;;;;8.62;100.00;101383.09;5265147;28;20462;-68
2023/04/29 01:30:00;;;;;;;45.30;29.95;;;;;;;8.66;100.00;101395.25;5262784;28;20032;-68
2023/04/29 01:32:46;;;;;;;46.50;30.65;;;;;;;8.62;100.00;101401.72;5261377;28;20451;-68
2023/04/29 01:35:30;;;;;;;46.75;30.67;;;;;;;8.63;100.00;101401.63;5261281;28;20098;-68
2023/04/29 01:38:46;;;;;;;48.60;31.80;;;;;;;8.63;100.00;101400.78;5257282;28;20577;-68
2023/04/29 01:41:38;;;;;;;47.00;31.17;;;;;;;8.58;100.00;101395.72;5244364;28;20052;-68
2023/04/29 01:44:15;;;;;;;51.20;32.35;;;;;;;8.58;100.00;101400.19;5253829;28;20466;-67
2023/04/29 01:46:52;;;;;;;51.13;32.30;;;;;;;8.58;100.00;101406.34;5257217;28;20087;-67
2023/04/29 01:49:24;;;;;;;51.92;32.85;;;;;;;8.59;100.00;101401.88;5256945;28;20032;-68
2023/04/29 01:51:56;;;;;;;57.35;32.50;;;;;;;8.57;100.00;101395.78;5261756;28;20033;-68
2023/04/29 01:54:27;;;;;;;53.10;32.70;;;;;;;8.60;100.00;101403.59;5266110;28;20467;-68
2023/04/29 01:56:59;;;;;;;53.03;33.40;;;;;;;8.60;100.00;101403.59;5265651;28;20380;-68
2023/04/29 01:59:30;;;;;;;55.67;32.97;;;;;;;8.59;100.00;101410.75;5268655;28;20450;-68
2023/04/29 02:02:02;;;;;;;50.38;31.77;;;;;;;8.63;100.00;101409.59;5267482;28;20126;-67
2023/04/29 02:04:33;;;;;;;54.38;34.00;;;;;;;8.62;100.00;101412.34;5308475;27;20119;-68
2023/04/29 02:07:05;;;;;;;53.00;33.95;;;;;;;8.63;100.00;101409.59;5305312;27;20053;-68
2023/04/29 02:09:36;;;;;;;56.03;33.47;;;;;;;8.60;100.00;101411.59;5296849;27;20111;-68
2023/04/29 02:12:07;;;;;;;55.05;34.42;;;;;;;8.59;100.00;101408.06;5298035;27;20509;-68
2023/04/29 02:14:39;;;;;;;57.22;34.67;;;;;;;8.62;100.00;101418.53;5307629;28;20027;-68
2023/04/29 02:17:10;;;;;;;60.00;35.90;;;;;;;8.62;100.00;101423.00;5299490;27;20194;-68
2023/04/29 02:19:41;;;;;;;57.85;34.50;;;;;;;8.61;100.00;101422.13;5295632;28;20023;-68
2023/04/29 02:22:14;;;;;;;60.65;36.42;;;;;;;8.59;100.00;101426.69;5303186;27;20035;-68
2023/04/29 02:24:45;;;;;;;60.72;35.78;;;;;;;8.61;100.00;101429.25;5297637;27;20032;-68
2023/04/29 02:27:17;;;;;;;59.95;34.97;;;;;;;8.60;100.00;101428.41;5304743;27;20027;-68
2023/04/29 02:29:49;;;;;;;62.80;37.88;;;;;;;8.58;100.00;101429.44;5297826;27;20418;-68
2023/04/29 02:32:20;;;;;;;65.93;36.33;;;;;;;8.61;100.00;101434.56;5301977;28;20019;-68
2023/04/29 02:34:52;;;;;;;58.40;35.92;;;;;;;8.65;100.00;101438.78;5299723;27;20032;-68
2023/04/29 02:37:23;;;;;;;62.58;36.15;;;;;;;8.61;100.00;101435.44;5299386;27;20466;-68
2023/04/29 02:39:55;;;;;;;69.95;39.13;;;;;;;8.61;100.00;101454.06;5296840;27;20031;-68
2023/04/29 02:42:26;;;;;;;64.93;38.17;;;;;;;8.64;100.00;101445.03;5301794;27;21401;-67
2023/04/29 02:44:57;;;;;;;66.93;39.58;;;;;;;8.64;100.00;101461.00;5300194;27;20061;-68
2023/04/29 02:47:29;;;;;;;71.75;38.78;;;;;;;8.61;100.00;101456.72;5299814;27;20032;-67
2023/04/29 02:50:00;;;;;;;66.30;39.63;;;;;;;8.60;100.00;101462.97;5298121;28;20059;-67
2023/04/29 02:52:32;;;;;;;68.72;38.63;;;;;;;8.59;100.00;101468.38;5297590;28;20041;-68
2023/04/29 02:55:03;;;;;;;74.38;40.67;;;;;;;8.57;100.00;101465.84;5299637;28;20442;-68
2023/04/29 02:57:35;;;;;;;68.38;38.95;;;;;;;8.56;100.00;101473.91;5306494;28;20235;-68
2023/04/29 03:00:07;;;;;;;78.05;39.60;;;;;;;8.52;100.00;101467.88;5312559;28;20481;-68
2023/04/29 03:02:39;;;;;;;71.18;39.17;;;;;;;8.53;100.00;101474.06;5311179;27;20708;-67
2023/04/29 03:05:10;;;;;;;72.85;40.65;;;;;;;8.50;100.00;101479.56;5297218;28;20159;-68
2023/04/29 03:07:43;;;;;;;76.55;39.60;;;;;;;8.53;100.00;101484.69;5308969;28;20047;-68
2023/04/29 03:10:14;;;;;;;76.70;41.05;;;;;;;8.51;100.00;101486.59;5302633;28;20136;-68
2023/04/29 03:12:45;;;;;;;75.93;40.35;;;;;;;8.47;100.00;101483.25;5307515;27;20031;-67
2023/04/29 03:15:17;;;;;;;71.65;39.67;;;;;;;8.46;100.00;101475.34;5302693;27;20167;-68
2023/04/29 03:17:48;;;;;;;73.15;40.10;;;;;;;8.48;100.00;101484.13;5296477;28;20059;-68
2023/04/29 03:20:19;;;;;;;70.40;37.63;;;;;;;8.44;100.00;101481.63;5293475;27;20467;-68
2023/04/29 03:22:51;;;;;;;73.88;39.85;;;;;;;8.41;100.00;101486.22;5295126;27;20051;-67
2023/04/29 03:25:22;;;;;;;72.00;40.03;;;;;;;8.42;100.00;101485.34;5299324;27;20069;-68
2023/04/29 03:27:54;;;;;;;78.20;39.72;;;;;;;8.43;100.00;101492.34;5295860;27;20039;-68
2023/04/29 03:30:26;;;;;;;78.60;41.22;;;;;;;8.39;100.00;101494.28;5297093;27;20378;-68
2023/04/29 03:32:57;;;;;;;79.85;40.53;;;;;;;8.42;100.00;101494.16;5294625;27;20537;-68
2023/04/29 03:35:28;;;;;;;73.47;40.05;;;;;;;8.41;100.00;101497.75;5296289;28;20587;-69
2023/04/29 03:38:00;;;;;;;70.25;37.53;;;;;;;8.40;100.00;101500.47;5298377;27;20113;-68
2023/04/29 03:40:31;;;;;;;73.18;39.38;;;;;;;8.41;100.00;101507.50;5297438;27;20469;-68
2023/04/29 03:43:03;;;;;;;76.28;38.45;;;;;;;8.37;100.00;101498.84;5293175;27;20538;-68
2023/04/29 03:45:34;;;;;;;72.05;38.58;;;;;;;8.37;100.00;101493.53;5297780;27;20030;-69
2023/04/29 03:48:06;;;;;;;77.05;39.70;;;;;;;8.33;100.00;101507.94;5297192;27;20039;-69
2023/04/29 03:50:38;;;;;;;76.20;39.05;;;;;;;8.34;100.00;101498.16;5301222;27;20403;-68
2023/04/29 03:53:10;;;;;;;73.63;39.05;;;;;;;8.35;100.00;101503.38;5299378;28;20157;-69
2023/04/29 03:55:42;;;;;;;67.43;36.25;;;;;;;8.39;100.00;101515.56;5300642;28;20520;-68
2023/04/29 03:58:13;;;;;;;65.03;36.75;;;;;;;8.40;100.00;101504.00;5302111;28;20081;-68
2023/04/29 04:00:44;;;;;;;68.90;37.05;;;;;;;8.36;100.00;101510.44;5299865;28;20396;-69
2023/04/29 04:03:16;;;;;;;67.30;37.20;;;;;;;8.37;100.00;101506.81;5275518;27;20135;-69
2023/04/29 04:05:47;;;;;;;67.40;37.15;;;;;;;8.43;100.00;101516.28;5253614;28;20056;-69
2023/04/29 04:08:19;;;;;;;61.50;36.78;;;;;;;8.43;100.00;101526.91;5251652;28;20040;-68
2023/04/29 04:10:50;;;;;;;64.93;36.70;;;;;;;8.43;100.00;101514.47;5252417;28;20028;-67
2023/04/29 04:13:22;;;;;;;70.03;36.95;;;;;;;8.41;100.00;101521.69;5258630;28;20510;-68
2023/04/29 04:15:53;;;;;;;62.10;36.40;;;;;;;8.44;100.00;101529.50;5262004;28;20024;-68
2023/04/29 04:18:25;;;;;;;68.13;35.97;;;;;;;8.47;100.00;101523.13;5261062;28;20094;-68
2023/04/29 04:20:56;;;;;;;63.05;36.25;;;;;;;8.47;100.00;101531.13;5264430;28;20107;-68
2023/04/29 04:23:27;;;;;;;60.90;35.00;;;;;;;8.46;100.00;101531.19;5266244;28;20495;-68
2023/04/29 04:25:58;;;;;;;64.03;33.78;;;;;;;8.43;100.00;101538.41;5268146;28;20036;-68
2023/04/29 04:28:30;;;;;;;63.33;34.45;;;;;;;8.43;100.00;101533.09;5264260;28;20037;-68
2023/04/29 04:31:01;;;;;;;59.05;34.10;;;;;;;8.42;100.00;101536.72;5256203;28;20541;-69
2023/04/29 04:33:34;;;;;;;62.28;34.30;;;;;;;8.47;100.00;101535.59;5249213;28;20039;-68
2023/04/29 04:36:06;;;;;;;59.05;34.67;;;;;;;8.42;100.00;101543.84;5252986;28;20033;-69
2023/04/29 04:38:37;;;;;;;55.17;32.50;;;;;;;8.43;100.00;101548.19;5255347;28;20820;-69
2023/04/29 04:41:08;;;;;;;57.72;32.80;;;;;;;8.43;100.00;101549.03;5256358;28;20058;-68
2023/04/29 04:43:40;;;;;;;54.90;31.88;;;;;;;8.44;100.00;101563.22;5252297;28;20034;-68
2023/04/29 04:46:13;;;;;;;56.15;31.55;;;;;;;8.42;100.00;101563.28;5256846;28;20028;-69
2023/04/29 04:48:44;;;;;;;52.22;31.42;;;;;;;8.47;100.00;101564.84;5255959;28;20492;-69
2023/04/29 04:51:15;;;;;;;51.15;32.25;;;;;;;8.49;100.00;101568.28;5254973;28;20032;-69
2023/04/29 04:53:47;;;;;;;57.50;31.42;;;;;;;8.43;100.00;101569.47;5254004;28;20036;-69
2023/04/29 04:56:18;;;;;;;55.88;32.05;;;;;;;8.46;100.00;101577.28;5256538;28;20032;-69
2023/04/29 04:58:50;;;;;;;53.35;31.55;;;;;;;8.44;100.00;101585.34;5258326;28;20115;-68
2023/04/29 05:01:21;;;;;;;54.47;32.90;;;;;;;8.44;100.00;101579.19;5255111;28;20458;-68
2023/04/29 05:03:52;;;;;;;52.95;31.58;;;;;;;8.46;100.00;101585.25;5259220;28;20056;-68
2023/04/29 05:06:24;;;;;;;54.13;31.38;;;;;;;8.47;100.00;101592.28;5258740;28;21489;-68
2023/04/29 05:08:55;;;;;;;51.78;30.55;;;;;;;8.46;100.00;101582.59;5252493;28;20039;-68
2023/04/29 05:11:27;;;;;;;49.70;30.48;;;;;;;8.49;100.00;101594.88;5255914;28;20346;-69
2023/04/29 05:13:58;;;;;;;50.38;30.23;;;;;;;8.52;100.00;101597.38;5257121;28;20048;-69
2023/04/29 05:16:30;;;;;;;48.55;28.52;;;;;;;8.47;100.00;101596.75;5258458;28;20351;-69
2023/04/29 05:19:01;;;;;;;49.55;30.13;;;;;;;8.46;100.00;101592.34;5251818;28;20467;-68
2023/04/29 05:21:32;;;;;;;53.15;30.73;;;;;;;8.44;100.00;101601.28;5256976;28;20039;-69
2023/04/29 05:24:05;;;;;;;45.20;29.50;;;;;;;8.42;100.00;101611.16;5258136;28;20032;-68
2023/04/29 05:26:37;;;;;;;49.47;29.20;;;;;;;8.41;100.00;101613.88;5260576;28;21894;-69
2023/04/29 05:29:09;;;;;;;48.83;28.02;;;;;;;8.38;100.00;101612.25;5258720;28;21010;-68
2023/04/29 05:31:41;;;;;;;45.90;28.98;;;;;;;8.43;100.00;101617.34;5259520;28;20092;-69
2023/04/29 05:34:12;;;;;;;45.33;28.98;;;;;;;8.43;100.00;101612.88;5259396;28;20255;-69
2023/04/29 05:36:44;;;;;;;48.70;30.00;;;;;;;8.42;100.00;101610.31;5259106;28;20107;-69
2023/04/29 05:39:16;;;;;;;47.28;28.88;;;;;;;8.40;100.00;101617.50;5257688;28;20035;-69
2023/04/29 05:41:47;;;;;;;45.90;28.58;;;;;;;8.41;100.00;101619.19;5258515;28;20429;-69
2023/04/29 05:44:19;;;;;;;49.88;29.02;;;;;;;8.40;100.00;101615.69;5260289;28;20063;-68
2023/04/29 05:46:50;;;;;;;46.65;28.83;;;;;;;8.40;100.00;101630.78;5258085;28;20028;-68
2023/04/29 05:49:22;;;;;;;51.80;29.98;;;;;;;8.40;100.00;101628.97;5258055;28;20033;-69
2023/04/29 05:51:53;;;;;;;47.28;28.52;;;;;;;8.37;100.00;101634.44;5259402;28;20148;-69
2023/04/29 05:54:25;;;;;;;49.05;29.65;;;;;;;8.38;100.00;101632.63;5257444;28;20097;-69
2023/04/29 05:56:56;;;;;;;47.45;29.35;;;;;;;8.38;100.00;101641.50;5258510;28;20402;-68
2023/04/29 05:59:29;;;;;;;43.83;28.00;;;;;;;8.40;100.00;101652.91;5259147;28;20129;-68
2023/04/29 06:02:01;;;;;;;53.60;28.35;;;;;;;8.40;100.00;101654.72;5256589;28;20116;-67
2023/04/29 06:04:33;;;;;;;48.97;29.50;;;;;;;8.41;100.00;101656.41;5258023;28;20501;-69
2023/04/29 06:07:04;;;;;;;44.90;28.48;;;;;;;8.44;100.00;101661.63;5259267;28;20036;-68
2023/04/29 06:09:36;;;;;;;45.00;27.60;;;;;;;8.47;100.00;101663.25;5257546;28;20024;-69
2023/04/29 06:12:07;;;;;;;44.95;28.25;;;;;;;8.48;100.00;101662.31;5252200;28;20044;-68
2023/04/29 06:14:38;;;;;;;42.30;27.98;;;;;;;8.49;100.00;101661.34;5267813;28;20559;-69
2023/04/29 06:17:10;;;;;;;42.65;27.17;;;;;;;8.53;100.00;101663.75;5272666;28;20032;-69
2023/04/29 06:19:41;;;;;;;42.45;28.30;;;;;;;8.51;100.00;101670.94;5269353;28;20033;-69
2023/04/29 06:22:12;;;;;;;43.17;27.70;;;;;;;8.51;100.00;101675.41;5262087;28;20054;-71
2023/04/29 06:24:46;;;;;;;46.15;27.50;;;;;;;8.51;100.00;101675.41;5260209;28;20050;-68
2023/04/29 06:27:17;;;;;;;44.05;28.15;;;;;;;8.53;100.00;101681.50;5264535;28;20036;-69
2023/04/29 06:29:48;;;;;;;45.88;27.30;;;;;;;8.58;100.00;101682.13;5266652;28;20040;-69
2023/04/29 06:32:20;;;;;;;40.72;26.98;;;;;;;8.59;100.00;101683.84;5266782;28;20094;-68
2023/04/29 06:34:51;;;;;;;41.70;26.08;;;;;;;8.59;100.00;101681.16;5268698;28;20694;-69
2023/04/29 06:37:22;;;;;;;43.03;26.35;;;;;;;8.58;100.00;101690.97;5263827;28;20040;-68
2023/04/29 06:39:54;;;;;;;43.55;26.42;;;;;;;8.62;100.00;101689.00;5262502;28;20094;-68
2023/04/29 06:42:25;;;;;;;41.22;26.40;;;;;;;8.64;100.00;101701.25;5262670;28;20409;-68
2023/04/29 06:44:56;;;;;;;43.65;26.52;;;;;;;8.67;100.00;101705.56;5264513;28;20028;-68
2023/04/29 06:47:28;;;;;;;44.33;27.05;;;;;;;8.72;100.00;101703.50;5262184;28;20481;-68
2023/04/29 06:49:59;;;;;;;40.60;25.80;;;;;;;8.79;100.00;101712.88;5262745;28;20433;-68
2023/04/29 06:52:32;;;;;;;40.47;25.50;;;;;;;8.77;100.00;101711.25;5262487;28;20029;-68
2023/04/29 06:55:04;;;;;;;44.75;26.48;;;;;;;8.79;100.00;101720.84;5266937;28;20027;-68
2023/04/29 06:57:35;;;;;;;37.78;25.60;;;;;;;8.83;100.00;101725.06;5267491;28;20111;-69
2023/04/29 07:00:07;;;;;;;43.05;25.35;;;;;;;8.94;100.00;101723.63;5263698;28;20031;-68
2023/04/29 07:02:38;;;;;;;41.47;25.58;;;;;;;8.96;100.00;101733.22;5283306;27;20083;-67
2023/04/29 07:05:10;;;;;;;40.45;26.23;;;;;;;9.02;100.00;101735.53;5316502;28;20381;-67
2023/04/29 07:07:41;;;;;;;37.72;25.20;;;;;;;9.06;100.00;101741.56;5315267;27;20019;-68
2023/04/29 07:10:13;;;;;;;39.90;26.08;;;;;;;9.12;100.00;101732.38;5315151;27;20023;-67
2023/04/29 07:12:44;;;;;;;38.75;25.98;;;;;;;9.17;100.00;101736.50;5312422;27;20424;-67
2023/04/29 07:15:16;;;;;;;38.90;25.58;;;;;;;9.18;100.00;101740.00;5312572;28;20478;-67
2023/04/29 07:17:47;;;;;;;36.60;24.67;;;;;;;9.20;100.00;101740.78;5316501;28;20027;-68
2023/04/29 07:20:19;;;;;;;40.97;24.98;;;;;;;9.21;100.00;101748.69;5315445;28;20019;-68
2023/04/29 07:22:50;;;;;;;36.30;23.73;;;;;;;9.25;100.00;101743.22;5312771;28;20070;-68
2023/04/29 07:25:21;;;;;;;37.58;24.88;;;;;;;9.31;100.00;101753.50;5314811;27;20138;-68
2023/04/29 07:27:53;;;;;;;35.38;24.17;;;;;;;9.36;100.00;101751.44;5305696;28;20020;-68
2023/04/29 07:30:24;;;;;;;38.50;24.83;;;;;;;9.40;100.00;101758.31;5305495;28;20058;-68
2023/04/29 07:32:55;;;;;;;37.28;25.20;;;;;;;9.42;100.00;101759.09;5311161;28;20031;-68
2023/04/29 07:35:27;;;;;;;36.35;24.92;;;;;;;9.45;100.00;101758.88;5304408;28;20020;-68
2023/04/29 07:37:58;;;;;;;37.05;24.63;;;;;;;9.47;100.00;101759.66;5317883;28;20122;-69
2023/04/29 07:40:29;;;;;;;33.90;23.77;;;;;;;9.41;100.00;101758.22;5311067;28;20032;-69
2023/04/29 07:43:03;;;;;;;32.55;23.38;;;;;;;9.45;100.00;101771.34;5310503;28;20036;-69
2023/04/29 07:45:35;;;;;;;31.90;22.60;;;;;;;9.46;100.00;101765.94;5313436;28;20381;-69
2023/04/29 07:48:06;;;;;;;35.53;23.95;;;;;;;9.53;100.00;101769.09;5313857;28;20027;-69
2023/04/29 07:50:38;;;;;;;35.70;23.20;;;;;;;9.58;100.00;101772.38;5313538;27;20168;-68
2023/04/29 07:53:09;;;;;;;31.67;22.92;;;;;;;9.56;100.00;101766.28;5313205;28;20031;-68
2023/04/29 07:55:40;;;;;;;34.75;23.30;;;;;;;9.63;100.00;101775.66;5312932;28;20089;-69
2023/04/29 07:58:12;;;;;;;35.10;23.58;;;;;;;9.69;100.00;101774.44;5314701;28;20031;-68
2023/04/29 08:00:43;;;;;;;36.45;24.17;;;;;;;9.79;100.00;101778.28;5317255;28;20031;-68
2023/04/29 08:03:15;;;;;;;33.70;22.90;;;;;;;9.87;100.00;101776.00;5313254;28;20044;-69
2023/04/29 08:05:47;;;;;;;33.05;22.42;;;;;;;9.96;100.00;101777.28;5313232;28;20088;-68
2023/04/29 08:08:18;;;;;;;29.73;21.88;;;;;;;10.07;100.00;101773.97;5316215;28;20035;-69
2023/04/29 08:10:49;;;;;;;29.85;21.75;;;;;;;10.19;100.00;101786.59;5306313;28;20050;-68
2023/04/29 08:13:21;;;;;;;29.10;20.77;;;;;;;10.27;100.00;101786.13;5316035;28;20055;-69
2023/04/29 08:15:52;;;;;;;27.55;20.30;;;;;;;10.28;100.00;101780.72;5315560;28;20024;-68
2023/04/29 08:18:24;;;;;;;28.42;20.15;;;;;;;10.37;100.00;101781.97;5314276;28;20073;-68
2023/04/29 08:20:55;;;;;;;26.58;19.48;;;;;;;10.48;100.00;101789.34;5311546;28;20057;-68
2023/04/29 08:23:27;;;;;;;26.85;18.50;;;;;;;10.52;100.00;101780.19;5315955;28;20147;-68
2023/04/29 08:25:58;;;;;;;28.02;18.50;;;;;;;10.62;100.00;101781.31;5314704;28;20118;-68
2023/04/29 08:28:29;;;;;;;24.25;17.17;;;;;;;10.73;100.00;101783.34;5316695;28;20031;-68
2023/04/29 08:31:01;;;;;;;27.35;18.65;;;;;;;10.82;100.00;101782.78;5309655;28;20031;-68
2023/04/29 08:33:33;;;;;;;25.77;17.58;;;;;;;10.91;100.00;101790.22;5316306;28;20074;-68
2023/04/29 08:36:05;;;;;;;21.88;16.45;;;;;;;10.92;100.00;101785.72;5315596;28;20027;-68
2023/04/29 08:38:37;;;;;;;24.23;17.80;;;;;;;11.00;100.00;101786.09;5315997;28;20424;-68
2023/04/29 08:41:08;;;;;;;23.65;16.45;;;;;;;11.11;100.00;101788.94;5316200;28;20115;-68
2023/04/29 08:43:40;;;;;;;22.20;16.38;;;;;;;11.17;100.00;101791.22;5310935;28;20027;-68
2023/04/29 08:46:12;;;;;;;22.42;16.40;;;;;;;11.33;100.00;101800.91;5312600;28;20054;-68
2023/04/29 08:48:44;;;;;;;22.35;17.35;;;;;;;11.45;100.00;101789.44;5316796;28;20384;-68
2023/04/29 08:51:15;;;;;;;23.08;16.67;;;;;;;11.51;100.00;101793.53;5308781;28;20034;-68
2023/04/29 08:53:46;;;;;;;21.98;15.20;;;;;;;11.58;100.00;101786.81;5315183;28;20122;-68
2023/04/29 08:56:22;;;;;;;19.95;15.60;;;;;;;11.62;100.00;101799.03;5316835;27;20141;-68
2023/04/29 08:58:57;;;;;;;22.25;15.65;;;;;;;11.55;100.00;101790.56;5321110;27;20019;-68
2023/04/29 09:01:29;;;;;;;22.95;15.18;;;;;;;11.64;100.00;101806.94;5315440;28;20039;-68
2023/04/29 09:04:19;;;;;;;19.95;15.27;;;;;;;11.71;100.00;101794.88;5318990;28;20047;-68
2023/04/29 09:06:52;;;;;;;18.30;14.23;;;;;;;11.72;100.00;101797.47;5315383;28;20489;-68
2023/04/29 09:09:24;;;;;;;19.88;14.77;;;;;;;11.72;100.00;101793.94;5319312;28;20054;-68
2023/04/29 09:11:55;;;;;;;19.65;14.48;;;;;;;11.72;100.00;101796.63;5317730;28;20785;-68
2023/04/29 09:14:29;;;;;;;21.25;14.73;;;;;;;11.69;100.00;101800.34;5318839;28;20027;-68
2023/04/29 09:17:00;;;;;;;19.00;12.98;;;;;;;11.77;100.00;101805.16;5317787;28;20085;-68
2023/04/29 09:19:33;;;;;;;21.33;14.40;;;;;;;11.77;100.00;101810.53;5311236;28;21140;-68
2023/04/29 09:22:06;;;;;;;17.92;13.77;;;;;;;11.87;100.00;101806.28;5315384;27;20082;-68
2023/04/29 09:24:38;;;;;;;18.08;13.60;;;;;;;11.94;100.00;101801.41;5320883;27;20024;-68
2023/04/29 09:27:25;;;;;;;16.88;13.20;;;;;;;12.07;100.00;101804.13;5317169;28;20818;-68
2023/04/29 09:30:00;;;;;;;15.88;11.90;;;;;;;12.25;100.00;101799.34;5310484;27;20027;-68
2023/04/29 09:32:32;;;;;;;16.58;11.75;;;;;;;12.45;100.00;101798.84;5308996;27;20066;-68
2023/04/29 09:35:36;;;;;;;16.05;10.57;;;;;;;12.80;100.00;101798.19;5316259;27;20441;-67
2023/04/29 09:38:12;;;;;;;15.35;10.90;;;;;;;13.02;100.00;101794.84;5291863;28;20096;-67
2023/04/29 09:40:44;;;;;;;16.67;10.70;;;;;;;13.03;100.00;101804.56;5308754;27;20035;-67
2023/04/29 09:43:17;;;;;;;13.65;9.60;;;;;;;13.05;100.00;101799.97;5308818;27;20406;-68
2023/04/29 09:45:49;;;;;;;15.30;10.45;;;;;;;13.17;100.00;101808.09;5309554;27;20035;-68
2023/04/29 09:48:20;;;;;;;14.00;10.32;;;;;;;13.31;100.00;101813.34;5308680;27;20053;-68
2023/04/29 09:51:02;;;;;;;15.73;10.00;;;;;;;13.40;100.00;101814.50;5308095;28;20036;-68
2023/04/29 09:53:37;;;;;;;13.80;10.23;;;;;;;13.39;100.00;101810.13;5303947;27;20404;-68
2023/04/29 09:56:08;;;;;;;15.95;10.25;;;;;;;13.42;100.00;101816.09;5310527;27;20082;-68
2023/04/29 09:58:40;;;;;;;15.23;10.80;;;;;;;13.30;100.00;101812.47;5306294;27;20111;-68
2023/04/29 10:01:13;;;;;;;15.85;11.25;;;;;;;13.31;100.00;101818.72;5307786;27;20027;-68
2023/04/29 10:03:44;;;;;;;12.85;9.57;;;;;;;13.36;100.00;101821.06;5278212;28;20403;-68
2023/04/29 10:06:18;;;;;;;12.90;10.38;;;;;;;13.40;100.00;101826.06;5265447;28;20091;-69
2023/04/29 10:08:50;;;;;;;12.98;9.60;;;;;;;13.46;100.00;101828.31;5267603;28;20035;-68
2023/04/29 10:11:21;;;;;;;12.23;9.40;;;;;;;13.42;100.00;101828.63;5264195;28;20028;-68
2023/04/29 10:13:53;;;;;;;14.88;9.45;;;;;;;13.34;100.00;101824.69;5261822;28;20032;-68
2023/04/29 10:16:32;;;;;;;12.85;8.85;;;;;;;13.34;100.00;101838.09;5268602;28;20030;-68
2023/04/29 10:19:10;;;;;;;13.88;8.65;;;;;;;13.47;100.00;101835.38;5268447;28;20028;-68
2023/04/29 10:21:42;;;;;;;15.20;9.75;;;;;;;13.53;100.00;101834.06;5266829;28;20029;-68
2023/04/29 10:24:16;;;;;;;13.48;9.93;;;;;;;13.49;100.00;101832.59;5274603;28;20039;-67
2023/04/29 10:26:50;;;;;;;12.48;9.23;;;;;;;13.43;100.00;101838.41;5270118;28;20033;-68
2023/04/29 10:29:21;;;;;;;;;;;;;;;13.47;100.00;101835.38;5271179;28;20537;-68
2023/04/29 10:31:54;;;;;;;10.30;8.43;;;;;;;13.24;100.00;101838.84;5268218;28;19999;-69
2023/04/29 10:34:27;;;;;;;16.02;9.55;;;;;;;13.26;100.00;101842.28;5270235;28;20047;-68
2023/04/29 10:36:58;;;;;;;13.80;9.43;;;;;;;13.27;100.00;101844.84;5272297;28;20036;-67
2023/04/29 10:39:38;;;;;;;12.63;8.73;;;;;;;13.31;100.00;101841.00;5269776;28;20043;-68
2023/04/29 10:42:29;;;;;;;12.40;9.07;;;;;;;13.41;100.00;101838.50;5263765;28;20870;-68
2023/04/29 10:45:31;;;;;;;15.07;9.57;;;;;;;13.52;100.00;101827.88;5271916;28;20039;-67
2023/04/29 10:48:05;;;;;;;14.10;9.27;;;;;;;13.46;100.00;101833.69;5263869;28;20025;-68
2023/04/29 10:50:45;;;;;;;11.50;8.48;;;;;;;13.60;100.00;101837.19;5264449;28;20043;-68
2023/04/29 10:53:20;;;;;;;14.90;9.90;;;;;;;13.65;100.00;101835.88;5267099;28;20045;-68
2023/04/29 10:55:55;;;;;;;12.32;9.35;;;;;;;13.67;100.00;101838.41;5274126;28;20017;-68
2023/04/29 10:58:44;;;;;;;13.93;9.27;;;;;;;13.71;100.00;101846.16;5274669;28;20028;-68
2023/04/29 11:01:16;;;;;;;12.90;8.57;;;;;;;13.68;100.00;101845.50;5268358;28;20414;-68
2023/04/29 11:04:00;;;;;;;11.68;8.13;;;;;;;13.73;100.00;101846.03;5300581;27;20969;-68
2023/04/29 11:06:34;;;;;;;12.52;7.80;;;;;;;13.85;100.00;101846.94;5313736;27;20032;-67
2023/04/29 11:09:10;;;;;;;;;;;;;;;14.01;100.00;101852.00;5311056;28;20339;-67
2023/04/29 11:12:04;;;;;;;12.82;8.43;;;;;;;14.07;100.00;101852.41;5307481;27;19919;-73
2023/04/29 11:14:48;;;;;;;12.55;8.32;;;;;;;14.09;100.00;101853.16;5307994;27;20024;-68
2023/04/29 11:17:20;;;;;;;12.18;8.07;;;;;;;14.06;100.00;101849.84;5311509;27;20019;-68
2023/04/29 11:19:52;;;;;;;12.85;8.30;;;;;;;14.04;100.00;101855.34;5315495;28;20325;-68
2023/04/29 11:22:26;;;;;;;13.48;8.35;;;;;;;14.05;100.00;101854.34;5313108;27;20024;-68
2023/04/29 11:24:59;;;;;;;13.48;8.48;;;;;;;14.09;100.00;101855.84;5311742;28;20039;-69
2023/04/29 11:27:33;;;;;;;14.13;8.80;;;;;;;14.09;100.00;101858.53;5311634;27;20027;-68
2023/04/29 11:30:06;;;;;;;13.73;8.85;;;;;;;14.09;100.00;101858.53;5314713;27;20065;-68
2023/04/29 11:32:41;;;;;;;12.35;8.75;;;;;;;14.06;100.00;101855.22;5316056;27;20031;-68
2023/04/29 11:35:17;;;;;;;12.63;8.23;;;;;;;14.02;100.00;101853.75;5313163;28;20020;-68
2023/04/29 11:37:48;;;;;;;12.70;8.05;;;;;;;13.99;100.00;101856.66;5313707;28;20023;-67